Time;durP1;ratioP1;P1;durP2;ratioP2;P2;SDS_P1;SDS_P2;PMS_P1;PMS_P2;Temp;Humidity;BMP_temperature;BMP_pressure;BME280_temperature;BME280_humidity;BME280_pressure;Samples;Min_cycle;Max_cycle;Signal;HPM_P1;HPM_P2
2021/11/21 00:00:26;;;;;;;16.77;8.70;;;9.20;91.10;;;;;;5036706;28;20676;-83
2021/11/21 00:02:52;;;;;;;11.80;6.70;;;9.20;91.30;;;;;;5036841;28;20179;-84
2021/11/21 00:05:18;;;;;;;12.03;8.33;;;9.20;91.00;;;;;;5054473;28;20230;-83
2021/11/21 00:07:44;;;;;;;11.73;7.50;;;9.20;91.00;;;;;;5035790;28;20283;-84
2021/11/21 00:10:10;;;;;;;15.60;7.83;;;9.20;90.80;;;;;;5036232;28;20211;-83
2021/11/21 00:12:37;;;;;;;8.53;5.67;;;9.30;90.60;;;;;;5036428;28;20226;-83
2021/11/21 00:15:05;;;;;;;14.60;7.47;;;9.30;90.60;;;;;;5054207;28;20176;-83
2021/11/21 00:17:31;;;;;;;12.23;7.87;;;9.20;90.70;;;;;;5036530;28;20200;-83
2021/11/21 00:19:56;;;;;;;12.17;8.10;;;9.20;90.50;;;;;;5036781;28;20671;-82
2021/11/21 00:22:24;;;;;;;11.10;7.53;;;9.20;90.60;;;;;;5054798;28;20184;-83
2021/11/21 00:24:50;;;;;;;14.07;7.60;;;9.20;90.60;;;;;;5036333;28;20592;-83
2021/11/21 00:27:16;;;;;;;13.43;8.03;;;9.20;90.50;;;;;;5054361;28;20192;-83
2021/11/21 00:29:41;;;;;;;15.23;7.37;;;9.20;90.70;;;;;;5036046;28;20219;-83
2021/11/21 00:32:07;;;;;;;16.73;8.53;;;9.20;90.80;;;;;;5036682;28;20180;-83
2021/11/21 00:34:33;;;;;;;12.27;7.40;;;9.20;90.70;;;;;;5054411;28;20262;-82
2021/11/21 00:36:59;;;;;;;16.00;7.13;;;9.30;90.20;;;;;;5054438;28;20215;-83
2021/11/21 00:39:25;;;;;;;14.97;7.60;;;9.20;90.30;;;;;;5036511;28;20203;-83
2021/11/21 00:41:52;;;;;;;12.17;7.13;;;9.20;90.30;;;;;;5036490;28;20195;-83
2021/11/21 00:44:19;;;;;;;13.40;8.73;;;9.20;90.30;;;;;;5036811;28;20766;-83
2021/11/21 00:46:45;;;;;;;8.87;5.40;;;9.20;90.20;;;;;;5054422;28;20206;-83
2021/11/21 00:49:16;;;;;;;13.50;7.00;;;9.20;90.10;;;;;;5054985;28;20546;-83
2021/11/21 00:51:42;;;;;;;12.90;6.70;;;9.30;90.00;;;;;;5039589;28;20176;-82
2021/11/21 00:54:23;;;;;;;14.03;6.80;;;9.30;89.90;;;;;;5040305;28;20223;-83
2021/11/21 00:56:50;;;;;;;14.47;7.03;;;9.30;89.80;;;;;;5057449;28;20647;-83
2021/11/21 00:59:22;;;;;;;12.10;6.77;;;9.30;89.70;;;;;;5057310;28;20206;-83
2021/11/21 01:01:49;;;;;;;18.03;7.27;;;9.30;89.50;;;;;;5040497;28;20530;-83
2021/11/21 01:04:16;;;;;;;13.73;7.10;;;9.30;89.70;;;;;;5058884;28;20177;-85
2021/11/21 01:06:43;;;;;;;11.80;6.87;;;9.30;89.80;;;;;;5043092;28;20246;-84
2021/11/21 01:09:09;;;;;;;9.67;6.13;;;9.30;89.80;;;;;;5041801;28;20180;-84
2021/11/21 01:11:35;;;;;;;12.20;6.20;;;9.30;89.80;;;;;;5042464;28;20183;-83
2021/11/21 01:14:01;;;;;;;10.70;7.33;;;9.30;89.60;;;;;;5060465;28;20235;-84
2021/11/21 01:16:26;;;;;;;10.53;6.73;;;9.30;89.60;;;;;;5039685;28;20606;-84
2021/11/21 01:18:52;;;;;;;14.97;7.63;;;9.30;89.70;;;;;;5058220;28;20257;-84
2021/11/21 01:21:18;;;;;;;13.30;7.53;;;9.30;89.90;;;;;;5058798;28;20176;-85
2021/11/21 01:23:44;;;;;;;13.20;7.93;;;9.30;89.80;;;;;;5040608;28;20675;-83
2021/11/21 01:26:11;;;;;;;12.00;7.23;;;9.30;89.80;;;;;;5039713;28;20207;-83
2021/11/21 01:28:37;;;;;;;10.50;6.90;;;9.30;89.90;;;;;;5038844;28;20176;-83
2021/11/21 01:31:03;;;;;;;12.90;5.50;;;9.30;90.00;;;;;;5038197;28;20187;-83
2021/11/21 01:33:29;;;;;;;14.07;6.87;;;9.30;90.10;;;;;;5040274;28;20183;-84
2021/11/21 01:35:55;;;;;;;15.77;7.90;;;9.30;90.10;;;;;;5040186;28;20184;-84
2021/11/21 01:38:21;;;;;;;9.10;7.00;;;9.30;90.40;;;;;;5057999;28;20222;-86
2021/11/21 01:40:48;;;;;;;15.23;8.73;;;9.20;90.50;;;;;;5058059;28;20187;-84
2021/11/21 01:43:14;;;;;;;11.97;5.47;;;9.30;90.40;;;;;;5039985;28;20659;-84
2021/11/21 01:45:40;;;;;;;13.57;8.33;;;9.30;90.30;;;;;;5058328;28;20179;-83
2021/11/21 01:48:05;;;;;;;11.30;7.30;;;9.30;90.30;;;;;;5057978;28;20192;-83
2021/11/21 01:50:35;;;;;;;9.00;6.43;;;9.30;90.30;;;;;;5057510;28;20240;-83
2021/11/21 01:53:01;;;;;;;9.60;7.33;;;9.30;90.30;;;;;;5058481;28;20235;-85
2021/11/21 01:55:27;;;;;;;8.30;7.07;;;9.30;90.40;;;;;;5058685;28;20665;-83
2021/11/21 01:57:55;;;;;;;11.97;7.77;;;9.30;90.40;;;;;;5039686;28;20210;-85
2021/11/21 02:00:22;;;;;;;14.07;8.43;;;9.30;90.50;;;;;;5040142;28;20204;-84
2021/11/21 02:02:47;;;;;;;16.90;7.93;;;9.30;90.80;;;;;;5038706;28;20222;-84
2021/11/21 02:05:13;;;;;;;8.60;7.60;;;9.30;90.80;;;;;;5039058;28;20550;-83
2021/11/21 02:07:42;;;;;;;11.80;7.07;;;9.30;91.20;;;;;;5039747;28;20212;-83
2021/11/21 02:10:11;;;;;;;13.63;7.27;;;9.20;91.70;;;;;;5039501;28;20195;-84
2021/11/21 02:12:37;;;;;;;11.27;8.20;;;9.10;92.10;;;;;;5038319;28;20624;-84
2021/11/21 02:15:08;;;;;;;14.37;8.30;;;9.10;92.50;;;;;;5055494;28;20176;-86
2021/11/21 02:17:35;;;;;;;16.57;8.70;;;9.00;92.90;;;;;;5055720;28;20659;-83
2021/11/21 02:20:03;;;;;;;15.63;10.40;;;9.00;93.10;;;;;;5056111;28;20202;-85
2021/11/21 02:22:28;;;;;;;12.97;10.57;;;9.00;93.30;;;;;;5055918;28;20255;-84
2021/11/21 02:24:54;;;;;;;13.40;10.67;;;9.00;93.60;;;;;;5038391;28;20660;-82
2021/11/21 02:27:27;;;;;;;14.00;9.37;;;9.00;93.70;;;;;;5038462;28;20641;-86
2021/11/21 02:29:53;;;;;;;17.53;12.33;;;8.90;93.80;;;;;;5056543;28;20160;-85
2021/11/21 02:32:19;;;;;;;19.50;11.63;;;8.90;93.90;;;;;;5038099;28;20250;-84
2021/11/21 02:34:44;;;;;;;13.40;10.90;;;9.00;94.00;;;;;;5055016;28;20234;-83
2021/11/21 02:37:10;;;;;;;16.20;11.43;;;8.90;94.10;;;;;;5038487;28;20227;-83
2021/11/21 02:39:37;;;;;;;13.57;10.60;;;8.90;94.20;;;;;;5056691;28;20211;-86
2021/11/21 02:42:03;;;;;;;13.43;11.03;;;8.90;94.40;;;;;;5055319;28;20644;-84
2021/11/21 02:44:29;;;;;;;18.80;11.57;;;8.90;94.50;;;;;;5038899;28;20182;-86
2021/11/21 02:46:55;;;;;;;15.77;11.53;;;8.90;94.50;;;;;;5057150;28;20192;-86
2021/11/21 02:49:21;;;;;;;13.30;10.83;;;8.90;94.50;;;;;;5055481;28;20184;-84
2021/11/21 02:51:47;;;;;;;14.73;10.93;;;8.90;94.60;;;;;;5057342;28;20176;-84
2021/11/21 02:54:12;;;;;;;17.50;9.90;;;8.90;94.70;;;;;;5039181;28;20180;-86
2021/11/21 02:56:39;;;;;;;9.33;7.63;;;8.90;94.60;;;;;;5056241;28;20274;-85
2021/11/21 02:59:04;;;;;;;7.67;5.83;;;8.90;94.60;;;;;;5056155;28;20231;-84
2021/11/21 03:01:30;;;;;;;7.87;5.07;;;8.90;94.70;;;;;;5038221;28;20563;-84
2021/11/21 03:03:56;;;;;;;10.07;5.10;;;8.90;94.60;;;;;;5039214;28;20168;-83
2021/11/21 03:06:22;;;;;;;6.13;5.10;;;8.90;94.60;;;;;;5038900;28;20199;-83
2021/11/21 03:08:49;;;;;;;8.20;4.57;;;8.90;94.60;;;;;;5057260;28;20660;-85
2021/11/21 03:11:30;;;;;;;8.33;4.90;;;8.90;94.60;;;;;;5039024;28;20294;-84
2021/11/21 03:13:57;;;;;;;9.03;5.03;;;8.90;94.60;;;;;;5056557;28;20211;-84
2021/11/21 03:16:23;;;;;;;6.30;3.97;;;8.90;94.70;;;;;;5038306;28;20334;-84
2021/11/21 03:18:49;;;;;;;20.33;4.30;;;8.90;94.60;;;;;;5037952;28;20207;-83
2021/11/21 03:21:15;;;;;;;6.27;2.93;;;8.90;94.70;;;;;;5056377;28;20172;-84
2021/11/21 03:23:42;;;;;;;2.50;1.40;;;8.90;94.70;;;;;;5037822;28;20670;-84
2021/11/21 03:26:08;;;;;;;3.93;1.40;;;8.80;94.60;;;;;;5038088;28;20691;-84
2021/11/21 03:28:34;;;;;;;5.63;1.70;;;8.80;94.60;;;;;;5038083;28;20176;-84
2021/11/21 03:31:00;;;;;;;5.20;1.70;;;8.90;94.60;;;;;;5057006;28;20530;-84
2021/11/21 03:33:26;;;;;;;2.90;1.60;;;8.90;94.70;;;;;;5038406;28;20260;-85
2021/11/21 03:35:52;;;;;;;2.53;1.70;;;8.90;94.80;;;;;;5056174;28;20167;-84
2021/11/21 03:38:18;;;;;;;2.67;1.57;;;8.80;94.80;;;;;;5057284;28;20175;-84
2021/11/21 03:40:44;;;;;;;4.50;1.77;;;8.80;94.80;;;;;;5057577;28;20172;-82
2021/11/21 03:43:09;;;;;;;5.37;1.43;;;8.80;94.90;;;;;;5039193;28;20172;-84
2021/11/21 03:45:35;;;;;;;3.27;1.93;;;8.80;94.90;;;;;;5039578;28;20213;-84
2021/11/21 03:48:01;;;;;;;4.23;1.90;;;8.80;94.90;;;;;;5056944;28;20282;-84
2021/11/21 03:50:27;;;;;;;3.30;2.23;;;8.80;94.90;;;;;;5056012;28;20199;-84
2021/11/21 03:52:53;;;;;;;4.10;2.80;;;8.80;94.90;;;;;;5056631;28;20164;-83
2021/11/21 03:55:19;;;;;;;4.50;2.53;;;8.80;94.90;;;;;;5039140;28;20183;-84
2021/11/21 03:57:46;;;;;;;3.57;2.80;;;8.80;95.00;;;;;;5056400;28;20196;-85
2021/11/21 04:00:21;;;;;;;3.87;3.10;;;8.80;95.00;;;;;;5038249;28;20207;-84
2021/11/21 04:02:47;;;;;;;6.50;3.10;;;8.80;95.00;;;;;;5056341;28;20640;-83
2021/11/21 04:05:14;;;;;;;4.37;3.03;;;8.80;95.10;;;;;;5056102;28;20179;-84
2021/11/21 04:07:41;;;;;;;12.80;4.10;;;8.80;95.10;;;;;;5037950;28;20671;-85
2021/11/21 04:10:08;;;;;;;8.33;4.57;;;8.80;95.10;;;;;;5056259;28;20543;-84
2021/11/21 04:12:34;;;;;;;7.80;5.47;;;8.80;95.10;;;;;;5037831;28;20778;-84
2021/11/21 04:14:59;;;;;;;12.40;6.27;;;8.80;95.10;;;;;;5055734;28;20632;-84
2021/11/21 04:17:27;;;;;;;9.77;6.27;;;8.80;95.10;;;;;;5056213;28;20188;-84
2021/11/21 04:19:53;;;;;;;11.67;6.80;;;8.80;95.10;;;;;;5037748;28;20610;-84
2021/11/21 04:22:19;;;;;;;16.07;7.40;;;8.80;95.10;;;;;;5055740;28;20167;-84
2021/11/21 04:24:45;;;;;;;13.23;8.20;;;8.80;95.10;;;;;;5037827;28;20172;-84
2021/11/21 04:27:11;;;;;;;13.43;8.80;;;8.80;95.20;;;;;;5041413;28;20195;-84
2021/11/21 04:29:37;;;;;;;12.47;7.97;;;8.80;95.20;;;;;;5060552;28;20164;-84
2021/11/21 04:32:03;;;;;;;9.77;7.23;;;8.80;95.30;;;;;;5041151;28;20198;-84
2021/11/21 04:34:29;;;;;;;9.83;6.37;;;8.80;95.30;;;;;;5059963;28;20700;-84
2021/11/21 04:36:55;;;;;;;11.37;6.37;;;8.80;95.30;;;;;;5059589;28;20254;-85
2021/11/21 04:39:22;;;;;;;11.83;5.80;;;8.80;95.40;;;;;;5059400;28;20257;-84
2021/11/21 04:41:48;;;;;;;16.67;4.17;;;8.80;95.30;;;;;;5059439;28;20169;-84
2021/11/21 04:44:14;;;;;;;15.10;4.20;;;8.80;95.30;;;;;;5042188;28;20182;-83
2021/11/21 04:46:40;;;;;;;8.60;5.03;;;8.80;95.20;;;;;;5060367;28;20207;-83
2021/11/21 04:49:06;;;;;;;9.27;4.90;;;8.80;95.30;;;;;;5059309;28;20168;-84
2021/11/21 04:51:32;;;;;;;10.23;5.37;;;8.80;95.20;;;;;;5041241;28;20203;-84
2021/11/21 04:53:59;;;;;;;9.63;4.87;;;8.80;95.20;;;;;;5041301;28;20176;-84
2021/11/21 04:56:24;;;;;;;13.97;5.30;;;8.80;95.20;;;;;;5059759;28;20203;-83
2021/11/21 04:58:50;;;;;;;12.63;5.27;;;8.80;95.10;;;;;;5059548;28;20668;-84
2021/11/21 05:01:16;;;;;;;9.33;4.57;;;8.80;95.10;;;;;;5041863;28;20728;-83
2021/11/21 05:03:42;;;;;;;11.90;4.73;;;8.80;95.10;;;;;;5060333;28;20226;-83
2021/11/21 05:06:08;;;;;;;13.07;4.43;;;8.80;95.00;;;;;;5059828;28;20188;-83
2021/11/21 05:08:34;;;;;;;16.80;4.97;;;8.80;95.00;;;;;;5041933;28;20282;-83
2021/11/21 05:11:00;;;;;;;15.93;5.00;;;8.80;95.00;;;;;;5059643;28;20585;-83
2021/11/21 05:13:26;;;;;;;10.63;3.90;;;8.80;95.00;;;;;;5059205;28;20164;-83
2021/11/21 05:15:51;;;;;;;15.67;4.00;;;8.70;95.00;;;;;;5041170;28;20176;-83
2021/11/21 05:18:17;;;;;;;18.77;3.07;;;8.70;95.00;;;;;;5058747;28;20703;-83
2021/11/21 05:20:43;;;;;;;15.37;3.23;;;8.70;94.90;;;;;;5059076;28;20175;-83
2021/11/21 05:23:08;;;;;;;17.73;3.30;;;8.70;94.90;;;;;;5040858;28;20180;-83
2021/11/21 05:25:34;;;;;;;13.07;2.33;;;8.70;94.80;;;;;;5059291;28;20171;-83
2021/11/21 05:28:00;;;;;;;18.70;3.30;;;8.70;94.80;;;;;;5058661;28;20195;-84
2021/11/21 05:30:25;;;;;;;13.27;3.20;;;8.70;94.70;;;;;;5040478;28;20318;-83
2021/11/21 05:32:51;;;;;;;11.57;2.87;;;8.70;94.70;;;;;;5040608;28;20274;-83
2021/11/21 05:35:18;;;;;;;13.40;3.67;;;8.70;94.60;;;;;;5058482;28;20180;-83
2021/11/21 05:37:45;;;;;;;12.77;4.07;;;8.70;94.60;;;;;;5056376;28;20683;-84
2021/11/21 05:40:11;;;;;;;15.40;4.33;;;8.70;94.70;;;;;;5038946;28;20578;-83
2021/11/21 05:42:37;;;;;;;10.07;3.70;;;8.70;94.70;;;;;;5057098;28;20172;-83
2021/11/21 05:45:04;;;;;;;12.47;4.80;;;8.70;94.70;;;;;;5039185;28;20698;-83
2021/11/21 05:47:31;;;;;;;17.40;4.90;;;8.70;94.70;;;;;;5056464;28;20199;-84
2021/11/21 05:49:57;;;;;;;15.27;5.37;;;8.70;94.70;;;;;;5038354;28;20176;-83
2021/11/21 05:52:23;;;;;;;9.40;5.20;;;8.70;94.70;;;;;;5038211;28;20275;-84
2021/11/21 05:54:50;;;;;;;17.07;5.63;;;8.60;94.80;;;;;;5038616;28;20243;-83
2021/11/21 05:57:16;;;;;;;12.30;4.83;;;8.70;94.80;;;;;;5056432;28;20196;-84
2021/11/21 05:59:42;;;;;;;19.77;5.23;;;8.70;94.80;;;;;;5055915;28;20282;-83
2021/11/21 06:02:08;;;;;;;12.20;5.43;;;8.60;94.90;;;;;;5037855;28;20173;-83
2021/11/21 06:04:33;;;;;;;12.03;5.20;;;8.60;95.00;;;;;;5055736;28;20275;-83
2021/11/21 06:06:59;;;;;;;17.27;5.10;;;8.60;95.00;;;;;;5037551;28;20203;-83
2021/11/21 06:09:25;;;;;;;23.23;5.33;;;8.60;95.00;;;;;;5056191;28;20238;-84
2021/11/21 06:11:51;;;;;;;15.10;5.33;;;8.60;95.00;;;;;;5055849;28;20176;-83
2021/11/21 06:14:17;;;;;;;10.07;4.57;;;8.60;95.00;;;;;;5055532;28;20175;-84
2021/11/21 06:16:43;;;;;;;17.73;5.53;;;8.60;95.00;;;;;;5055870;28;20196;-84
2021/11/21 06:19:09;;;;;;;19.60;5.57;;;8.50;95.00;;;;;;5037121;28;20644;-84
2021/11/21 06:21:34;;;;;;;17.20;5.70;;;8.50;95.00;;;;;;5055581;28;20176;-83
2021/11/21 06:24:00;;;;;;;19.73;4.83;;;8.50;95.00;;;;;;5055292;28;20172;-84
2021/11/21 06:26:26;;;;;;;16.17;4.80;;;8.50;95.00;;;;;;5037095;28;20198;-83
2021/11/21 06:28:53;;;;;;;14.50;4.57;;;8.40;94.90;;;;;;5054913;28;20202;-83
2021/11/21 06:31:19;;;;;;;14.73;3.97;;;8.40;94.90;;;;;;5055104;28;20168;-83
2021/11/21 06:33:45;;;;;;;19.20;4.63;;;8.30;94.80;;;;;;5037051;28;20208;-84
2021/11/21 06:36:11;;;;;;;21.30;3.90;;;8.30;94.80;;;;;;5036655;28;20258;-83
2021/11/21 06:38:36;;;;;;;14.23;3.47;;;8.30;94.70;;;;;;5055171;28;20236;-83
2021/11/21 06:41:02;;;;;;;16.33;3.63;;;8.20;94.60;;;;;;5055224;28;20168;-83
2021/11/21 06:43:28;;;;;;;18.13;3.97;;;8.20;94.50;;;;;;5054973;28;20640;-83
2021/11/21 06:45:53;;;;;;;15.70;4.60;;;8.10;94.40;;;;;;5036733;28;20548;-83
2021/11/21 06:48:21;;;;;;;17.83;4.37;;;8.10;94.40;;;;;;5054138;28;20184;-83
2021/11/21 06:50:51;;;;;;;22.47;4.03;;;8.00;94.20;;;;;;5036435;28;20183;-83
2021/11/21 06:53:17;;;;;;;13.07;3.87;;;8.00;94.20;;;;;;5054325;28;20613;-83
2021/11/21 06:55:43;;;;;;;14.27;3.07;;;7.90;94.10;;;;;;5054248;28;20657;-82
2021/11/21 06:58:09;;;;;;;11.83;3.40;;;7.90;94.00;;;;;;5036326;28;20183;-83
2021/11/21 07:00:35;;;;;;;16.00;3.30;;;7.90;94.00;;;;;;5036287;28;20579;-85
2021/11/21 07:03:01;;;;;;;18.93;3.20;;;7.80;94.00;;;;;;5054121;28;20164;-84
2021/11/21 07:05:27;;;;;;;16.20;3.60;;;7.80;93.90;;;;;;5035945;28;20644;-84
2021/11/21 07:07:52;;;;;;;12.93;3.17;;;7.90;93.90;;;;;;5035866;28;20270;-84
2021/11/21 07:10:18;;;;;;;13.43;3.40;;;7.80;93.80;;;;;;5053745;28;20172;-85
2021/11/21 07:12:44;;;;;;;12.73;3.33;;;7.80;93.80;;;;;;5053680;28;20226;-84
2021/11/21 07:15:12;;;;;;;12.90;3.60;;;7.80;93.70;;;;;;5054107;28;20263;-84
2021/11/21 07:17:38;;;;;;;23.37;3.67;;;7.70;93.70;;;;;;5053639;28;20188;-84
2021/11/21 07:20:05;;;;;;;13.30;3.07;;;7.60;93.70;;;;;;5053441;28;20698;-84
2021/11/21 07:22:32;;;;;;;15.77;3.77;;;7.60;93.70;;;;;;5053433;28;20658;-84
2021/11/21 07:24:58;;;;;;;18.53;4.23;;;7.50;93.70;;;;;;5053520;28;20636;-83
2021/11/21 07:27:24;;;;;;;16.97;3.33;;;7.50;93.70;;;;;;5035626;28;20199;-83
2021/11/21 07:29:49;;;;;;;17.33;3.70;;;7.50;93.70;;;;;;5053410;28;20585;-84
2021/11/21 07:32:15;;;;;;;19.73;4.43;;;7.50;93.70;;;;;;5053390;28;20259;-84
2021/11/21 07:34:41;;;;;;;21.07;4.00;;;7.50;93.70;;;;;;5053218;28;20271;-84
2021/11/21 07:37:06;;;;;;;26.43;3.73;;;7.40;93.60;;;;;;5052967;28;20210;-83
2021/11/21 07:39:32;;;;;;;15.63;3.50;;;7.40;93.70;;;;;;5035313;28;20726;-84
2021/11/21 07:41:58;;;;;;;19.23;3.30;;;7.40;93.70;;;;;;5035462;28;20172;-83
2021/11/21 07:44:23;;;;;;;14.27;2.87;;;7.40;93.70;;;;;;5053399;28;20548;-83
2021/11/21 07:46:49;;;;;;;17.33;3.47;;;7.40;93.80;;;;;;5053297;28;20703;-83
2021/11/21 07:49:15;;;;;;;21.00;3.47;;;7.50;93.90;;;;;;5053261;28;20172;-83
2021/11/21 07:51:40;;;;;;;23.57;3.60;;;7.50;93.90;;;;;;5053016;28;20168;-84
2021/11/21 07:54:06;;;;;;;22.57;3.50;;;7.60;94.00;;;;;;5053069;28;20251;-83
2021/11/21 07:56:32;;;;;;;23.90;3.40;;;7.70;94.10;;;;;;5053065;28;20196;-83
2021/11/21 07:58:57;;;;;;;17.70;2.47;;;7.70;94.00;;;;;;5052840;28;20279;-83
2021/11/21 08:01:23;;;;;;;13.13;3.07;;;7.60;93.70;;;;;;5059421;28;20196;-86
2021/11/21 08:03:48;;;;;;;19.90;3.20;;;7.70;93.60;;;;;;5059720;28;20164;-86
2021/11/21 08:06:14;;;;;;;17.97;3.60;;;7.60;93.50;;;;;;5060138;28;20199;-86
2021/11/21 08:08:40;;;;;;;17.00;2.73;;;7.60;93.40;;;;;;5060591;28;20612;-86
2021/11/21 08:11:05;;;;;;;17.83;3.50;;;7.60;93.40;;;;;;5060603;28;20183;-86
2021/11/21 08:13:32;;;;;;;21.30;3.87;;;7.50;93.40;;;;;;5059612;28;20168;-86
2021/11/21 08:15:58;;;;;;;25.57;2.87;;;7.50;93.40;;;;;;5041923;28;20172;-87
2021/11/21 08:18:24;;;;;;;19.23;3.27;;;7.50;93.40;;;;;;5041299;28;20560;-86
2021/11/21 08:20:52;;;;;;;23.63;3.00;;;7.50;93.50;;;;;;5059512;28;20172;-87
2021/11/21 08:23:18;;;;;;;15.87;2.87;;;7.50;93.50;;;;;;5041479;28;20214;-86
2021/11/21 08:25:44;;;;;;;21.97;3.13;;;7.50;93.60;;;;;;5059346;28;20575;-86
2021/11/21 08:28:11;;;;;;;19.37;2.77;;;7.60;93.60;;;;;;5041388;28;20173;-87
2021/11/21 08:30:38;;;;;;;21.37;3.03;;;7.60;93.50;;;;;;5059219;28;20172;-86
2021/11/21 08:33:08;;;;;;;21.50;3.57;;;7.60;93.30;;;;;;5041329;28;20180;-86
2021/11/21 08:35:35;;;;;;;18.47;2.80;;;7.70;93.30;;;;;;5041067;28;20176;-87
2021/11/21 08:38:01;;;;;;;19.93;2.77;;;7.80;93.30;;;;;;5058521;28;20218;-87
2021/11/21 08:40:29;;;;;;;23.30;2.77;;;7.80;93.30;;;;;;5040580;28;20200;-86
2021/11/21 08:42:56;;;;;;;15.13;3.07;;;7.90;93.20;;;;;;5057959;28;20251;-86
2021/11/21 08:45:23;;;;;;;20.93;3.17;;;7.90;93.10;;;;;;5040608;28;20200;-87
2021/11/21 08:47:49;;;;;;;18.93;3.07;;;8.00;93.20;;;;;;5058354;28;20237;-87
2021/11/21 08:50:15;;;;;;;20.13;3.70;;;8.10;93.20;;;;;;5058681;28;20176;-86
2021/11/21 08:52:41;;;;;;;23.53;3.67;;;8.10;93.10;;;;;;5040711;28;20183;-86
2021/11/21 08:55:07;;;;;;;22.03;4.03;;;8.10;93.10;;;;;;5040988;28;20188;-87
2021/11/21 08:57:33;;;;;;;14.83;2.90;;;8.10;92.90;;;;;;5058867;28;20291;-85
2021/11/21 09:00:05;;;;;;;21.67;3.27;;;8.10;92.90;;;;;;5058564;28;20257;-86
2021/11/21 09:02:31;;;;;;;18.60;3.27;;;8.00;92.80;;;;;;5040302;28;20548;-86
2021/11/21 09:04:57;;;;;;;19.33;2.87;;;8.00;92.90;;;;;;5058927;28;20168;-86
2021/11/21 09:07:22;;;;;;;27.07;3.47;;;8.00;92.80;;;;;;5040321;28;20234;-86
2021/11/21 09:09:48;;;;;;;14.80;2.47;;;8.00;92.70;;;;;;5057924;28;20156;-87
2021/11/21 09:12:13;;;;;;;18.50;3.60;;;7.90;92.70;;;;;;5057908;28;20172;-86
2021/11/21 09:14:39;;;;;;;15.70;2.80;;;8.00;92.70;;;;;;5057503;28;20172;-87
2021/11/21 09:17:05;;;;;;;21.97;4.40;;;8.00;92.60;;;;;;5057513;28;20200;-86
2021/11/21 09:19:30;;;;;;;13.93;2.73;;;8.10;92.60;;;;;;5040284;28;20285;-86
2021/11/21 09:21:56;;;;;;;22.60;3.40;;;8.10;92.30;;;;;;5057651;28;20247;-86
2021/11/21 09:24:22;;;;;;;20.83;3.07;;;8.20;92.00;;;;;;5039443;28;20675;-86
2021/11/21 09:26:47;;;;;;;23.17;4.33;;;8.20;91.70;;;;;;5057486;28;20188;-86
2021/11/21 09:29:13;;;;;;;18.57;3.10;;;8.10;91.10;;;;;;5057645;28;20583;-86
2021/11/21 09:31:38;;;;;;;18.07;2.83;;;8.10;90.60;;;;;;5057393;28;20194;-86
2021/11/21 09:34:04;;;;;;;12.43;2.67;;;8.10;89.90;;;;;;5039865;28;20191;-86
2021/11/21 09:36:34;;;;;;;10.80;1.90;;;8.20;90.20;;;;;;5057827;28;20611;-86
2021/11/21 09:38:59;;;;;;;13.47;2.47;;;8.40;90.10;;;;;;5056742;28;20286;-86
2021/11/21 09:41:25;;;;;;;11.43;2.10;;;8.50;89.30;;;;;;5057244;28;20218;-85
2021/11/21 09:43:51;;;;;;;11.33;2.00;;;8.70;89.60;;;;;;5057049;28;20191;-85
2021/11/21 09:46:18;;;;;;;17.67;2.50;;;8.80;89.70;;;;;;5056687;28;20196;-86
2021/11/21 09:48:44;;;;;;;15.77;2.63;;;8.50;89.70;;;;;;5039238;28;20188;-86
2021/11/21 09:51:09;;;;;;;16.07;2.87;;;8.30;89.80;;;;;;5056854;28;20234;-85
2021/11/21 09:53:35;;;;;;;12.87;2.43;;;8.30;90.50;;;;;;5038962;28;20646;-83
2021/11/21 09:56:01;;;;;;;12.67;2.87;;;8.20;90.30;;;;;;5057187;28;20307;-86
2021/11/21 09:58:28;;;;;;;13.90;2.17;;;8.00;90.60;;;;;;5038517;28;20271;-86
2021/11/21 10:00:53;;;;;;;9.87;2.13;;;8.00;90.60;;;;;;5057099;28;20172;-84
2021/11/21 10:03:19;;;;;;;11.03;1.97;;;8.00;90.70;;;;;;5056862;28;20175;-85
2021/11/21 10:05:49;;;;;;;11.60;2.53;;;8.20;90.40;;;;;;5038411;28;20184;-87
2021/11/21 10:08:21;;;;;;;13.50;2.20;;;8.30;90.20;;;;;;5056134;28;20187;-85
2021/11/21 10:11:05;;;;;;;12.90;2.87;;;8.40;90.00;;;;;;5055933;28;20255;-86
2021/11/21 10:13:31;;;;;;;11.47;2.10;;;8.40;88.80;;;;;;5038085;28;20573;-86
2021/11/21 10:16:19;;;;;;;10.77;2.33;;;8.50;89.00;;;;;;5055626;28;20172;-84
2021/11/21 10:18:56;;;;;;;12.67;2.03;;;8.60;88.00;;;;;;5056196;28;20180;-84
2021/11/21 10:21:24;;;;;;;13.90;2.73;;;8.70;88.40;;;;;;5038491;28;20207;-86
2021/11/21 10:24:08;;;;;;;7.77;1.83;;;8.70;88.10;;;;;;5037054;28;20180;-83
2021/11/21 10:26:34;;;;;;;10.97;2.23;;;8.80;87.70;;;;;;5039285;28;20196;-83
2021/11/21 10:29:00;;;;;;;20.33;2.80;;;8.90;87.60;;;;;;5057289;28;20212;-83
2021/11/21 10:31:30;;;;;;;15.07;2.93;;;9.00;87.90;;;;;;5056137;28;20183;-84
2021/11/21 10:34:00;;;;;;;11.50;2.50;;;8.90;87.50;;;;;;5037219;28;20718;-84
2021/11/21 10:36:36;;;;;;;11.40;2.40;;;9.10;87.70;;;;;;5036531;28;20302;-83
2021/11/21 10:39:08;;;;;;;13.63;2.33;;;9.10;87.40;;;;;;5036703;28;20203;-84
2021/11/21 10:41:40;;;;;;;9.70;1.80;;;9.20;88.00;;;;;;5054674;28;20172;-83
2021/11/21 10:44:20;;;;;;;15.87;2.60;;;9.30;87.50;;;;;;5055199;28;20167;-84
2021/11/21 10:46:48;;;;;;;11.70;2.10;;;9.40;87.60;;;;;;5037013;28;20238;-84
2021/11/21 10:49:40;;;;;;;10.27;2.60;;;9.50;86.80;;;;;;5055530;28;20172;-83
2021/11/21 10:52:14;;;;;;;12.37;2.30;;;9.60;87.00;;;;;;5054757;28;20188;-84
2021/11/21 10:54:45;;;;;;;11.13;2.27;;;9.80;87.10;;;;;;5054663;28;20627;-84
2021/11/21 10:57:16;;;;;;;13.10;2.47;;;9.80;86.80;;;;;;5036746;28;20282;-84
2021/11/21 10:59:48;;;;;;;18.30;2.90;;;9.80;86.50;;;;;;5036724;28;20196;-84
2021/11/21 11:02:24;;;;;;;12.93;2.80;;;9.80;86.70;;;;;;5055200;28;20148;-85
2021/11/21 11:05:09;;;;;;;11.63;2.50;;;10.00;86.90;;;;;;5037518;28;20541;-83
2021/11/21 11:07:42;;;;;;;16.07;3.30;;;10.00;86.60;;;;;;5055586;28;20249;-84
2021/11/21 11:10:15;;;;;;;16.90;3.50;;;10.00;86.40;;;;;;5037290;28;20306;-86
2021/11/21 11:12:47;;;;;;;12.27;2.20;;;10.00;85.40;;;;;;5037088;28;20180;-86
2021/11/21 11:15:13;;;;;;;8.80;2.57;;;10.10;86.10;;;;;;5055843;28;20176;-84
2021/11/21 11:17:39;;;;;;;26.63;3.60;;;10.10;85.80;;;;;;5037144;28;20210;-86
2021/11/21 11:20:24;;;;;;;9.73;2.07;;;10.20;86.40;;;;;;5055007;28;20214;-86
2021/11/21 11:22:50;;;;;;;14.73;2.80;;;10.30;85.80;;;;;;5055392;28;20156;-86
2021/11/21 11:25:30;;;;;;;19.10;3.47;;;10.30;85.90;;;;;;5037870;28;20180;-86
2021/11/21 11:27:58;;;;;;;19.03;3.90;;;10.30;84.60;;;;;;5055861;28;20195;-85
2021/11/21 11:30:30;;;;;;;13.17;2.83;;;10.50;85.10;;;;;;5055606;28;20659;-85
2021/11/21 11:33:10;;;;;;;14.43;2.73;;;10.30;83.20;;;;;;5055283;28;20179;-86
2021/11/21 11:35:41;;;;;;;9.67;1.77;;;10.30;83.70;;;;;;5035845;28;20214;-83
2021/11/21 11:38:28;;;;;;;17.10;2.53;;;10.40;83.20;;;;;;5093844;22;20242;-89
2021/11/21 11:40:56;;;;;;;16.33;2.63;;;10.50;84.10;;;;;;5057385;28;20282;-90
2021/11/21 11:43:28;;;;;;;14.07;2.47;;;10.70;83.20;;;;;;5075895;28;20163;-89
2021/11/21 11:45:56;;;;;;;10.40;2.40;;;10.50;82.70;;;;;;5057895;28;20170;-89
2021/11/21 11:48:34;;;;;;;19.23;2.60;;;10.50;82.70;;;;;;5075632;28;20648;-89
2021/11/21 11:51:09;;;;;;;10.27;2.30;;;10.60;83.20;;;;;;5075778;28;20176;-89
2021/11/21 11:53:43;;;;;;;16.27;2.37;;;10.70;82.60;;;;;;5057596;28;20163;-89
2021/11/21 11:56:20;;;;;;;10.20;2.07;;;10.80;82.60;;;;;;5057685;28;20167;-89
2021/11/21 11:59:00;;;;;;;9.83;2.23;;;10.50;83.50;;;;;;5057280;28;20170;-89
2021/11/21 12:01:38;;;;;;;9.40;1.70;;;10.80;84.20;;;;;;5057428;28;20167;-89
2021/11/21 12:04:24;;;;;;;15.83;3.13;;;10.80;82.80;;;;;;5057765;28;20181;-89
2021/11/21 12:07:19;;;;;;;7.77;1.80;;;10.90;82.40;;;;;;5058039;28;20264;-89
2021/11/21 12:09:58;;;;;;;6.73;1.40;;;11.00;82.30;;;;;;5047244;28;20274;-89
2021/11/21 12:13:00;;;;;;;12.03;1.83;;;11.00;80.30;;;;;;5058316;28;20191;-89
2021/11/21 12:15:26;;;;;;;7.67;1.63;;;10.70;80.90;;;;;;5076152;28;20159;-89
2021/11/21 12:17:53;;;;;;;16.27;2.00;;;10.40;81.80;;;;;;5057342;28;20555;-89
2021/11/21 12:20:40;;;;;;;12.17;1.90;;;10.20;81.80;;;;;;5057800;28;20242;-89
2021/11/21 12:23:06;;;;;;;9.00;1.90;;;10.20;82.90;;;;;;5057935;28;20178;-90
2021/11/21 12:25:31;;;;;;;10.80;2.17;;;10.00;82.90;;;;;;5057700;28;20175;-89
2021/11/21 12:28:00;;;;;;;8.03;2.10;;;9.80;81.30;;;;;;5075679;28;20209;-89
2021/11/21 12:30:29;;;;;;;10.20;1.80;;;9.60;81.80;;;;;;5057809;28;20171;-89
2021/11/21 12:33:02;;;;;;;12.23;1.63;;;9.60;81.20;;;;;;5057607;28;20228;-89
2021/11/21 12:35:29;;;;;;;11.60;2.00;;;9.50;81.80;;;;;;5075278;28;20164;-89
2021/11/21 12:38:00;;;;;;;6.30;1.40;;;9.40;82.20;;;;;;5057450;28;20211;-89
2021/11/21 12:40:47;;;;;;;8.90;1.40;;;9.40;82.20;;;;;;5057768;28;20187;-90
2021/11/21 12:43:17;;;;;;;9.43;1.57;;;9.50;82.00;;;;;;5075684;28;20156;-90
2021/11/21 12:45:47;;;;;;;11.53;1.73;;;9.70;82.00;;;;;;5075967;28;20679;-89
2021/11/21 12:48:21;;;;;;;12.57;1.20;;;9.90;81.40;;;;;;5061192;28;20618;-89
2021/11/21 12:50:55;;;;;;;9.70;1.60;;;10.20;81.40;;;;;;5079070;28;20234;-89